Friday, February 24, 2017, 12:05 PM EST

KESN, Easton / Newman Field

Location: Easton, MD, United States Lat: 38.8
Local Time: 12:05 PM EST (17:05 GMT) Lon: -76.067
Time Zone: US/Eastern Elev: 72 ft

Show me the last for .
Show Decoded

2017-02-24 11:50 METAR KESN 241650Z 19010KT 10SM SCT029 23/13 A2997 =
2017-02-24 10:45 METAR KESN 241545Z 20011KT 10SM SKC 21/13 A2999 =
2017-02-24 09:50 METAR KESN 241450Z 19009KT 10SM SKC 19/13 A3000 =
2017-02-24 08:50 METAR KESN 241350Z 21006KT 10SM SKC 17/13 A2999 =
2017-02-24 07:54 METAR KESN 241254Z 19006KT 10SM SKC 15/12 A2998 =
2017-02-24 06:50 METAR KESN 241150Z 18006KT 10SM SKC 12/10 A2997 =
2017-02-24 05:56 METAR KESN 241056Z AUTO 19005KT 10SM CLR 12/10 A2998 RMK AO2 T01230102 =
2017-02-24 05:50 METAR KESN 241050Z 18006KT 10SM SKC 12/10 A2997 =
2017-02-24 05:40 METAR KESN 241040Z AUTO 19005KT 10SM CLR 12/10 A2997 RMK AO2 T01240103 =
2017-02-24 05:20 METAR KESN 241020Z AUTO 18005KT 10SM CLR 12/10 A2997 RMK AO2 T01230103 =
2017-02-24 05:00 METAR KESN 241000Z AUTO 18005KT 10SM CLR 12/10 A2997 RMK AO2 T01210103 =
2017-02-24 04:40 METAR KESN 240940Z AUTO 18004KT 10SM CLR 12/10 A2996 RMK AO2 T01200101 =
2017-02-24 04:20 METAR KESN 240920Z AUTO 20003KT 10SM CLR 13/11 A2996 RMK AO2 T01270105 =
2017-02-24 04:00 METAR KESN 240900Z AUTO 20005KT 10SM CLR 13/11 A2996 RMK AO2 T01320108 =
2017-02-24 03:40 METAR KESN 240840Z AUTO 18006KT 10SM CLR 13/11 A2995 RMK AO2 T01290106 =
2017-02-24 03:20 METAR KESN 240820Z AUTO 20004KT 10SM CLR 13/11 A2996 RMK AO2 T01270105 =
2017-02-24 03:00 METAR KESN 240800Z AUTO 20004KT 10SM CLR 13/11 A2995 RMK AO2 T01300106 =
2017-02-24 02:40 METAR KESN 240740Z AUTO 20004KT 10SM CLR 14/11 A2995 RMK AO2 T01370110 =
2017-02-24 02:20 METAR KESN 240720Z AUTO 20006KT 10SM CLR 14/11 A2996 RMK AO2 T01420111 =
2017-02-24 02:00 METAR KESN 240700Z AUTO 20005KT 10SM CLR 14/11 A2996 RMK AO2 T01430111 =
2017-02-24 01:40 METAR KESN 240640Z AUTO 21006KT 10SM CLR 14/11 A2997 RMK AO2 T01440112 =
2017-02-24 01:20 METAR KESN 240620Z AUTO 21007KT 10SM CLR 15/11 A2997 RMK AO2 T01450113 =
2017-02-24 01:00 METAR KESN 240600Z AUTO 20006KT 10SM CLR 15/11 A2996 RMK AO2 T01460113 =
2017-02-24 00:40 METAR KESN 240540Z AUTO 20008KT 10SM CLR 15/12 A2996 RMK AO2 T01480115 =
2017-02-24 00:20 METAR KESN 240520Z AUTO 20007KT 10SM CLR 15/12 A2996 RMK AO2 T01510115 =
2017-02-24 00:00 METAR KESN 240500Z AUTO 21007KT 10SM CLR 15/12 A2996 RMK AO2 T01510115 =
2017-02-23 23:40 METAR KESN 240440Z AUTO 20007KT 10SM CLR 15/11 A2995 RMK AO2 T01510113 =
2017-02-23 23:20 METAR KESN 240420Z AUTO 20008KT 10SM CLR 16/11 A2995 RMK AO2 T01550112 =
2017-02-23 23:00 METAR KESN 240400Z AUTO 20007KT 10SM CLR 16/11 A2995 RMK AO2 T01550112 =
2017-02-23 22:40 METAR KESN 240340Z AUTO 20008KT 10SM CLR 16/11 A2995 RMK AO2 T01550111 =
2017-02-23 22:20 METAR KESN 240320Z AUTO 20008KT 10SM CLR 16/11 A2995 RMK AO2 T01570111 =
2017-02-23 22:00 METAR KESN 240300Z AUTO 20008KT 10SM CLR 16/11 A2995 RMK AO2 T01600111 =
2017-02-23 20:55 METAR KESN 240155Z 19006KT 10SM SKC 17/11 A2994 =
2017-02-23 19:50 METAR KESN 240050Z 18010KT 10SM SKC 17/11 A2993 =
2017-02-23 18:50 METAR KESN 232350Z 19008KT 10SM SKC 18/11 A2993 =
2017-02-23 17:50 METAR KESN 232250Z 18006KT 10SM SKC 19/11 A2990 =
2017-02-23 16:50 METAR KESN 232150Z 170011KT 10SM SKC 22/12 A2988 =
2017-02-23 15:45 METAR KESN 232045Z 190012G16KT 10SM SKC 23/12 A2987 =
2017-02-23 14:45 METAR KESN 231945Z 21009KT 10SM SKC 23/12 A2987 =
2017-02-23 13:50 METAR KESN 231850Z 21013KT 10SM SKC 23/12 A2988 =
2017-02-23 12:50 METAR KESN 231750Z 24012KT 10SM SKC 21/12 A2991 =

Support USWX by starting your Amazon purchase here.